x

9411340 - Santa Barbara, Ca (ntbc1) Weather Station

6:36 - Fri 23rd Jun 2017 All times are PDT. -7 hours from GMT.

  • Wind
    2mph, 3mph gusts
  • Air Temp 61°f
  • Sea Pressure 1012.5mb
  • 9411340 - Santa Barbara, Ca
  • 9411340 - Santa Barbara, Ca

More Historic Weather Station data

Upgrade to MSW Pro to gain access to the past 30 days of data for over 8000 Wavebouys and Weather Stations around the globe.

Join Pro

Comparision Forecast

View Surf forecast
   
ven. 06/23 6:36 2 3 mph 1012.5mb 61f
6:30 1 2 mph 1012.4mb 60f
6:24 2 3 mph 1012.3mb 60f
6:18 2 5 mph 1012.2mb 61f
6:12 3 5 mph 1012.2mb 60f
6:06 2 3 mph 1012.2mb 61f
6:00 1 3 mph 1012.2mb 60f
5:36 2 5 mph 1011.9mb 60f
5:30 3 5 mph 1011.8mb 60f
5:24 3 5 mph 1011.7mb 60f
5:18 2 3 mph 1011.7mb 60f
5:12 1 3 mph 1011.7mb 60f
5:06 2 5 mph 1011.7mb 61f
5:00 3 5 mph 1011.8mb 60f
4:36 2 5 mph 1011.7mb 60f
4:30 3 5 mph 1011.7mb 60f
4:24 3 5 mph 1011.7mb 60f
4:18 2 5 mph 1011.6mb 61f
4:12 2 3 mph 1011.7mb 61f
4:06 2 3 mph 1011.7mb 61f
4:00 3 5 mph 1011.7mb 61f
3:36 6 7 mph 1011.7mb 61f
3:30 6 8 mph 1011.7mb 61f
3:24 3 6 mph 1011.6mb 61f
3:18 3 6 mph 1011.6mb 61f
3:12 3 6 mph 1011.6mb 61f
3:06 2 5 mph 1011.7mb 61f
3:00 2 6 mph 1011.7mb 61f
2:36 3 6 mph 1011.6mb 61f
2:30 3 6 mph 1011.6mb 61f
2:24 3 6 mph 1011.7mb 61f
2:18 2 5 mph 1011.7mb 61f
2:12  -  2 mph 1011.8mb 61f
2:06 1 2 mph 1011.8mb 61f
2:00 2 3 mph 1011.9mb 61f
1:36 2 5 mph 1011.9mb 61f
1:30 2 3 mph 1011.8mb 61f
1:24 2 5 mph 1011.8mb 61f
1:18 2 2 mph 1011.8mb 61f
1:12  -  3 mph 1011.8mb 61f
1:06 3 3 mph 1011.8mb 61f
1:00 2 3 mph 1011.8mb 61f
12:36 2 3 mph 1011.9mb 61f
12:30 2 3 mph 1011.8mb 61f
12:24 2 3 mph 1011.8mb 61f
12:18 3 5 mph 1011.8mb 61f
12:12 3 5 mph 1011.8mb 61f
12:06 3 5 mph 1011.8mb 61f
12:00 3 5 mph 1011.7mb 61f
jeu. 06/22 11:36 5 6 mph 1011.6mb 61f
11:30 5 6 mph 1011.6mb 61f
11:24 5 6 mph 1011.7mb 61f
11:18 3 5 mph 1011.7mb 61f
11:12 5 6 mph 1011.8mb 61f
11:06 5 6 mph 1011.8mb 61f
11:00 5 6 mph 1011.8mb 61f
10:36 3 6 mph 1011.5mb 61f
10:30 5 6 mph 1011.4mb 61f
10:24 5 6 mph 1011.4mb 61f
10:18 5 6 mph 1011.3mb 61f
10:12 5 7 mph 1011.3mb 61f
10:06 6 6 mph 1011.2mb 61f
10:00 6 6 mph 1011.1mb 61f
9:36 5 6 mph 1011.1mb 61f
9:30 5 7 mph 1011mb 61f
9:24 7 8 mph 1011mb 61f
9:18 8 9 mph 1010.9mb 61f
9:12 7 9 mph 1010.8mb 61f
9:06 7 8 mph 1010.8mb 61f
9:00 6 7 mph 1010.7mb 62f
8:36 7 9 mph 1010.5mb 61f
8:30 7 8 mph 1010.5mb 62f
8:24 6 7 mph 1010.4mb 62f
8:18 7 9 mph 1010.4mb 62f
8:12 6 8 mph 1010.4mb 62f
8:06 7 9 mph 1010.4mb 62f
8:00 7 8 mph 1010.3mb 62f
7:36 6 8 mph 1010.1mb 62f
7:30 7 8 mph 1010mb 63f
7:24 6 8 mph 1009.9mb 63f
7:18 6 8 mph 1009.9mb 63f
7:12 7 8 mph 1009.8mb 63f
7:06 6 7 mph 1009.8mb 63f
7:00 7 9 mph 1009.8mb 63f
6:36 6 7 mph 1009.7mb 63f
6:30 3 6 mph 1009.6mb 64f
6:24 5 6 mph 1009.6mb 64f
6:18 3 5 mph 1009.6mb 64f
6:12 3 6 mph 1009.6mb 64f
6:06 3 6 mph 1009.7mb 64f
6:00 5 6 mph 1009.7mb 64f
5:36 3 5 mph 1009.7mb 65f
5:30 2 3 mph 1009.8mb 65f
5:24 2 5 mph 1009.8mb 65f
5:18 2 6 mph 1009.8mb 65f
5:12 3 6 mph 1009.8mb 65f
5:06 3 5 mph 1009.8mb 65f
5:00 2 5 mph 1009.8mb 65f
4:36 3 6 mph 1009.9mb 65f
4:30 3 6 mph 1009.9mb 65f
4:24 3 6 mph 1009.9mb 65f
4:18 2 6 mph 1009.9mb 65f
4:12 3 6 mph 1009.9mb 64f
4:06 5 6 mph 1010mb 64f
4:00 5 7 mph 1010.1mb 64f
3:36 2 6 mph 1010.3mb 65f
3:30 2 6 mph 1010.3mb 65f
3:24 3 6 mph 1010.4mb 64f
3:18 5 7 mph 1010.4mb 64f
3:12 6 7 mph 1010.3mb 64f
3:06 6 7 mph 1010.4mb 64f
3:00 7 9 mph 1010.4mb 64f
2:36 7 10 mph 1010.6mb 64f
2:30 7 9 mph 1010.6mb 64f
2:24 6 8 mph 1010.5mb 64f
2:18 7 9 mph 1010.6mb 64f
2:12 7 9 mph 1010.6mb 64f
2:06 7 10 mph 1010.6mb 64f
2:00 7 9 mph 1010.6mb 64f
1:36 8 10 mph 1010.6mb 64f
1:30 8 9 mph 1010.6mb 64f
1:24 6 8 mph 1010.6mb 65f
1:18 7 9 mph 1010.7mb 64f
1:12 7 8 mph 1010.8mb 64f
1:06 6 8 mph 1010.8mb 64f
1:00 7 9 mph 1010.7mb 64f
12:36 7 9 mph 1010.8mb 64f
12:30 7 9 mph 1010.9mb 64f
12:24 6 11 mph 1010.9mb 64f
12:18 9 10 mph 1010.8mb 63f
12:12 7 9 mph 1010.8mb 64f
12:06 5 7 mph 1010.7mb 64f
12:00 6 8 mph 1010.7mb 63f
11:36 6 8 mph 1010.6mb 63f
11:30 6 8 mph 1010.6mb 63f
11:24 5 8 mph 1010.6mb 63f
11:18 6 8 mph 1010.5mb 62f
11:12 5 7 mph 1010.5mb 62f
11:06 6 7 mph 1010.5mb 62f
11:00 6 8 mph 1010.4mb 61f
10:36 6 7 mph 1010.2mb 60f
10:30 5 6 mph 1010.2mb 60f
10:24 5 7 mph 1010.1mb 60f
10:18 5 6 mph 1010.1mb 60f
10:12 3 6 mph 1010.1mb 60f
10:06 2 5 mph 1010mb 59f
10:00 2 5 mph 1010mb 59f
9:36 3 5 mph 1009.8mb 59f
9:30 2 3 mph 1009.7mb 59f
9:24 2 3 mph 1009.6mb 58f
9:18 2 3 mph 1009.5mb 59f
9:12 3 5 mph 1009.6mb 59f
9:06 1 3 mph 1009.5mb 59f
9:00 2 3 mph 1009.4mb 59f
8:36 1 2 mph 1009.6mb 58f
8:30 2 5 mph 1009.5mb 58f
8:24 2 5 mph 1009.4mb 58f
8:18 3 5 mph 1009.5mb 58f
8:12 3 5 mph 1009.5mb 58f
8:06 5 6 mph 1009.4mb 58f
8:00 3 5 mph 1009.2mb 58f
7:54 5 6 mph 1009.1mb 58f
7:48 3 5 mph 1009mb 57f
7:36 3 5 mph 1008.8mb 58f
7:30 3 5 mph 1008.8mb 57f
7:24 3 5 mph 1008.7mb 58f
7:18 3 5 mph 1008.7mb 58f
7:12 3 5 mph 1008.5mb 57f
7:06 3 6 mph 1008.4mb 57f
7:00 5 6 mph 1008.4mb 57f
6:54 5 7 mph 1008.3mb 57f
6:48 6 7 mph 1008.2mb 57f
6:36 3 6 mph 1008.1mb 57f
6:30 3 6 mph 1008.2mb 57f
6:24 3 6 mph 1008.1mb 57f
6:18 3 5 mph 1008mb 57f
6:12 2 6 mph 1007.9mb 58f
6:06 3 5 mph 1007.9mb 57f
6:00 2 5 mph 1007.7mb 58f
5:54 3 6 mph 1007.7mb 58f
5:48 2 5 mph 1007.7mb 58f
5:36 3 5 mph 1007.5mb 58f
5:30 2 3 mph 1007.4mb 58f
5:24 2 3 mph 1007.4mb 58f
5:18 2 3 mph 1007.4mb 57f
5:12 2 3 mph 1007.3mb 58f
5:06  -  2 mph 1007.3mb 58f
5:00  -  2 mph 1007.3mb 57f
4:54 1 2 mph 1007.3mb 58f
4:48 1 2 mph 1007.2mb 58f
4:36 1 3 mph 1007.2mb 58f
4:30 1 3 mph 1007.2mb 58f
4:24 2 3 mph 1007.2mb 57f
4:18 1 3 mph 1007.2mb 58f
4:12  -  2 mph 1007.2mb 58f
4:06 2 3 mph 1007.3mb 58f
4:00  -  3 mph 1007.2mb 58f
3:54 2 3 mph 1007.1mb 58f
3:48 1 2 mph 1007mb 58f
3:36  -  3 mph 1006.9mb 58f
3:30 2 3 mph 1006.8mb 58f
3:24 2 3 mph 1006.8mb 58f
3:18 2 3 mph 1006.8mb 58f
3:12 1 3 mph 1006.8mb 58f
3:06 2 5 mph 1006.8mb 58f
3:00 3 5 mph 1006.7mb 58f
2:54 2 3 mph 1006.7mb 58f
2:48 3 3 mph 1006.8mb 58f
2:36 3 3 mph 1006.9mb 58f
2:30 2 3 mph 1006.9mb 58f
2:24  -  2 mph 1006.9mb 58f
2:18 1 3 mph 1007mb 58f
2:12 2 3 mph 1007mb 58f
2:06 1 3 mph 1007mb 58f
2:00 2 5 mph 1007mb 58f
1:54 1 3 mph 1007mb 58f
1:48 2 5 mph 1007mb 58f
1:36 5 6 mph 1007mb 58f
1:30 5 6 mph 1007mb 58f
1:24 5 6 mph 1007.1mb 58f
1:18 5 6 mph 1007mb 58f
1:12 5 6 mph 1007mb 58f
1:06 5 6 mph 1007.1mb 58f
1:00 5 5 mph 1007.1mb 58f
12:54 3 6 mph 1007.1mb 58f
12:48 5 6 mph 1007.1mb 58f
12:36 5 6 mph 1007.1mb 58f
12:30 6 7 mph 1007.1mb 58f
12:24 6 8 mph 1007.1mb 58f
12:18 6 7 mph 1007.1mb 58f
12:12 6 8 mph 1007mb 58f
12:06 7 9 mph 1007mb 58f
12:00 8 9 mph 1007mb 58f
mer. 06/21 11:54 7 8 mph 1007mb 59f
11:48 7 10 mph 1007mb 59f
11:36 7 9 mph 1007.1mb 59f
11:30 8 9 mph 1007.2mb 59f
11:24 7 8 mph 1007.2mb 59f
11:18 7 8 mph 1007.2mb 59f
11:12 6 7 mph 1007.2mb 59f
11:06 6 8 mph 1007.2mb 59f
11:00 6 8 mph 1007.2mb 60f
10:54 6 8 mph 1007.3mb 60f
10:48 6 8 mph 1007.2mb 60f
10:36 8 9 mph 1007.1mb 60f
10:30 7 8 mph 1007mb 60f
10:24 7 8 mph 1007mb 60f
10:18 7 9 mph 1006.9mb 60f
10:12 7 8 mph 1007mb 60f
10:06 7 9 mph 1006.9mb 60f
10:00 8 9 mph 1006.9mb 60f
9:54 7 8 mph 1006.8mb 60f
9:48 7 8 mph 1006.8mb 60f
9:36 6 8 mph 1006.8mb 60f
9:30 7 9 mph 1006.7mb 60f
9:24 7 9 mph 1006.7mb 61f
9:18 8 9 mph 1006.6mb 61f
9:12 7 8 mph 1006.5mb 61f
9:06 8 10 mph 1006.4mb 61f
9:00 8 9 mph 1006.3mb 61f
8:54 9 10 mph 1006.2mb 61f
8:36 8 10 mph 1006.1mb 61f
8:30 8 10 mph 1006.1mb 61f
8:24 8 9 mph 1006.1mb 61f
8:18 7 8 mph 1006.1mb 62f
8:12 7 8 mph 1006.2mb 61f
8:06 7 8 mph 1006.1mb 62f
8:00 7 9 mph 1006.1mb 62f
7:54 8 9 mph 1006mb 62f
7:48 9 10 mph 1006mb 62f
7:36 9 11 mph 1005.8mb 62f
7:30 10 11 mph 1005.7mb 62f
7:24 11 13 mph 1005.7mb 62f
7:18 11 13 mph 1005.7mb 62f
7:12 11 13 mph 1005.6mb 62f
7:06 11 14 mph 1005.6mb 62f
7:00 13 14 mph 1005.6mb 62f
6:54 13 14 mph 1005.6mb 62f
6:48 13 14 mph 1005.6mb 62f
6:36 14 16 mph 1005.5mb 62f
6:30 14 16 mph 1005.5mb 63f
6:24 14 16 mph 1005.5mb 62f
6:18 15 17 mph 1005.5mb 62f
6:12 14 16 mph 1005.5mb 62f
6:06 14 16 mph 1005.6mb 63f
6:00 14 15 mph 1005.6mb 63f
5:54 15 17 mph 1005.7mb 62f
5:48 15 17 mph 1005.7mb 62f
5:36 15 17 mph 1005.6mb 63f
5:30 15 16 mph 1005.6mb 63f
5:24 15 16 mph 1005.7mb 63f
5:18 15 16 mph 1005.7mb 63f
5:12 15 16 mph 1005.8mb 63f
5:06 15 16 mph 1005.8mb 63f
5:00 15 17 mph 1005.8mb 63f
4:54 16 17 mph 1005.9mb 63f
4:48 16 17 mph 1005.9mb 64f
4:36 15 16 mph 1006.1mb 63f
4:30 14 16 mph 1006.2mb 63f
4:24 14 16 mph 1006.3mb 63f
4:18 14 16 mph 1006.4mb 63f
4:12 14 16 mph 1006.5mb 63f
4:06 14 16 mph 1006.6mb 63f
4:00 14 16 mph 1006.6mb 63f
3:54 14 16 mph 1006.7mb 63f
3:48 15 16 mph 1006.8mb 63f
3:36 14 16 mph 1006.9mb 64f
3:30 14 16 mph 1006.9mb 64f
3:24 15 16 mph 1007mb 63f
3:18 14 16 mph 1007.1mb 64f
3:12 15 16 mph 1007.2mb 63f
3:06 15 17 mph 1007.3mb 63f
3:00 15 17 mph 1007.4mb 64f
2:54 14 16 mph 1007.4mb 63f
2:36 15 16 mph 1007.4mb 64f
2:30 15 15 mph 1007.4mb 64f
2:24 14 15 mph 1007.4mb 65f
2:18 14 15 mph 1007.5mb 64f
2:12 14 15 mph 1007.5mb 64f
2:06 14 16 mph 1007.6mb 64f
2:00 14 15 mph 1007.6mb 64f
1:54 14 16 mph 1007.6mb 64f
1:48 14 16 mph 1007.7mb 64f
1:36 16 17 mph 1007.7mb 64f
1:30 16 17 mph 1007.7mb 64f
1:24 16 18 mph 1007.7mb 64f
1:18 16 18 mph 1007.7mb 64f
1:12 16 17 mph 1007.8mb 64f
1:06 16 17 mph 1007.8mb 64f
1:00 15 17 mph 1007.8mb 64f
12:54 15 16 mph 1008mb 64f
12:48 14 16 mph 1008.1mb 64f
12:36 15 16 mph 1008.3mb 63f
12:30 14 15 mph 1008.3mb 64f
12:24 11 14 mph 1008.3mb 64f
12:18 10 14 mph 1008.3mb 63f
12:12 14 14 mph 1008.4mb 62f
12:06 13 14 mph 1008.4mb 63f
12:00 13 14 mph 1008.4mb 63f
11:54 11 14 mph 1008.5mb 62f
11:48 13 14 mph 1008.5mb 62f
11:36 11 14 mph 1008.6mb 63f
11:30 13 14 mph 1008.6mb 62f
11:24 13 15 mph 1008.7mb 62f
11:18 13 14 mph 1008.7mb 62f
11:12 13 14 mph 1008.7mb 62f
11:06 11 14 mph 1008.7mb 63f
11:00 13 16 mph 1008.7mb 63f
10:54 15 16 mph 1008.7mb 63f
10:48 13 15 mph 1008.7mb 64f
10:36 13 14 mph 1008.7mb 64f
10:30 10 11 mph 1008.7mb 64f
10:24 8 10 mph 1008.9mb 64f
10:18 8 10 mph 1008.9mb 63f
10:12 8 9 mph 1008.9mb 63f
10:06 8 9 mph 1008.8mb 63f
10:00 6 6 mph 1008.7mb 64f
9:54 3 5 mph 1008.6mb 63f
9:48 5 6 mph 1008.6mb 63f
9:36 5 6 mph 1008.6mb 63f
9:30 5 6 mph 1008.7mb 64f
9:24 3 6 mph 1008.7mb 64f
9:18 2 3 mph 1008.7mb 64f
9:12 2 3 mph 1008.7mb 64f
9:06 2 5 mph 1008.8mb 65f
9:00 2 3 mph 1008.8mb 66f
8:54 2 5 mph 1008.7mb 65f
8:48 3 5 mph 1008.7mb 64f
8:36 5 6 mph 1008.6mb 64f
8:30 3 5 mph 1008.7mb 65f
8:24 3 6 mph 1008.7mb 64f
8:18 5 6 mph 1008.7mb 63f
8:12 5 7 mph 1008.7mb 63f
8:06 6 7 mph 1008.6mb 63f
8:00 5 7 mph 1008.6mb 63f
7:54 6 7 mph 1008.6mb 63f
7:48 5 7 mph 1008.6mb 63f
7:36 6 7 mph 1008.7mb 62f
7:30 5 7 mph 1008.6mb 63f
7:24 6 8 mph 1008.7mb 62f
7:18 6 8 mph 1008.7mb 62f
7:12 5 9 mph 1008.6mb 62f
7:06 7 10 mph 1008.6mb 62f
7:00 7 10 mph 1008.5mb 62f
6:54 8 10 mph 1008.5mb 62f
6:36 8 11 mph 1008.5mb 61f
6:30 9 11 mph 1008.5mb 62f
6:24 6 10 mph 1008.5mb 61f
6:18 7 10 mph 1008.4mb 61f
6:12 7 10 mph 1008.3mb 61f
6:06 8 11 mph 1008.3mb 61f
6:00 8 10 mph 1008.3mb 61f
5:54 8 10 mph 1008.3mb 61f
5:48 8 10 mph 1008.2mb 61f
5:36 8 10 mph 1008.1mb 61f
5:30 8 10 mph 1008.1mb 61f
5:24 7 10 mph 1008.1mb 61f
5:18 5 8 mph 1008.1mb 61f
5:12 6 9 mph 1008mb 61f
5:06 6 8 mph 1008.1mb 61f
5:00 7 9 mph 1008.2mb 61f
4:54 6 8 mph 1008.1mb 61f
4:48 8 10 mph 1008mb 61f
4:36 6 9 mph 1008.1mb 61f
4:30 6 8 mph 1008.1mb 61f
4:24 7 9 mph 1008.1mb 61f
4:18 7 10 mph 1008.1mb 61f
4:12 6 8 mph 1008.1mb 61f
4:06 7 9 mph 1008.1mb 61f
4:00 8 10 mph 1008mb 61f
3:54 7 10 mph 1008mb 61f
3:48 8 13 mph 1008.1mb 61f
3:36 8 11 mph 1008.1mb 61f
3:30 7 10 mph 1008.1mb 61f
3:24 8 10 mph 1008.1mb 61f
3:18 8 9 mph 1008.1mb 61f
3:12 8 10 mph 1008.1mb 61f
3:06 7 10 mph 1008.1mb 61f
3:00 7 8 mph 1008.1mb 61f
2:54 6 8 mph 1008.1mb 61f
2:48 6 8 mph 1008.1mb 61f
2:36 7 9 mph 1008.1mb 61f
2:30 7 10 mph 1008.1mb 61f
2:24 8 9 mph 1008.2mb 61f
2:18 8 10 mph 1008.2mb 61f
2:12 8 10 mph 1008.2mb 61f
2:06 8 11 mph 1008.3mb 61f
2:00 8 11 mph 1008.3mb 61f
1:54 8 10 mph 1008.3mb 61f
1:48 7 9 mph 1008.3mb 61f
1:36 7 10 mph 1008.5mb 61f
1:30 8 10 mph 1008.5mb 61f
1:24 8 10 mph 1008.6mb 61f
1:18 7 9 mph 1008.7mb 61f
1:12 7 8 mph 1008.8mb 61f
1:06 7 9 mph 1008.8mb 61f
1:00 6 9 mph 1008.9mb 61f
12:54 6 8 mph 1008.9mb 61f
12:48 7 8 mph 1008.9mb 60f
12:36 5 7 mph 1009mb 60f
12:30 3 6 mph 1009mb 61f
12:24 3 7 mph 1009mb 61f
12:18 3 6 mph 1009.1mb 61f
12:12 3 6 mph 1009.2mb 61f
12:06 3 7 mph 1009.2mb 61f
12:00 6 8 mph 1009.2mb 61f
mar. 06/20 11:54 6 8 mph 1009.2mb 61f
11:48 6 7 mph 1009.2mb 61f
11:36 5 7 mph 1009.2mb 61f
11:30 5 6 mph 1009.2mb 61f
11:24 5 6 mph 1009.3mb 60f
11:18 3 5 mph 1009.3mb 60f
11:12 3 5 mph 1009.3mb 60f
11:06 2 5 mph 1009.4mb 60f
11:00 2 3 mph 1009.4mb 60f
10:54 2 5 mph 1009.5mb 60f
10:48 2 5 mph 1009.4mb 60f
10:36 2 3 mph 1009.4mb 60f
10:30 3 6 mph 1009.4mb 60f
10:24 3 5 mph 1009.5mb 60f
10:18 5 6 mph 1009.5mb 60f
10:12 3 6 mph 1009.5mb 60f
10:06 3 5 mph 1009.5mb 60f
10:00 2 5 mph 1009.5mb 60f
9:54 3 5 mph 1009.6mb 60f
9:48 3 5 mph 1009.5mb 60f
9:36 3 7 mph 1009.5mb 60f
9:30 6 7 mph 1009.4mb 60f
9:24 6 7 mph 1009.4mb 60f
9:18 6 6 mph 1009.3mb 60f
9:12 6 6 mph 1009.3mb 60f
9:06 6 7 mph 1009.3mb 61f
9:00 6 7 mph 1009.2mb 61f
8:54 6 6 mph 1009.1mb 61f
8:48 6 6 mph 1009.1mb 61f
8:36 6 7 mph 1009mb 61f
8:30 6 7 mph 1009mb 61f
8:24 7 8 mph 1009mb 61f
8:18 7 8 mph 1009mb 61f
8:12 7 8 mph 1009mb 61f
8:06 7 9 mph 1009mb 61f
8:00 8 9 mph 1009mb 61f
7:54 8 10 mph 1009mb 61f
7:48 8 9 mph 1009mb 61f
7:36 8 10 mph 1009mb 61f
7:30 10 11 mph 1009mb 61f
7:24 10 11 mph 1008.9mb 61f
7:18 10 13 mph 1008.8mb 61f
7:12 11 13 mph 1008.8mb 61f
7:06 10 13 mph 1008.8mb 61f
7:00 11 13 mph 1008.8mb 61f
6:54 10 11 mph 1008.7mb 61f
6:48 10 13 mph 1008.8mb 61f
6:36 10 13 mph 1008.8mb 61f
6:30 11 14 mph 1008.8mb 61f
6:24 13 13 mph 1008.8mb 61f
6:18 11 13 mph 1008.9mb 61f
6:12 11 13 mph 1009mb 61f
6:06 11 14 mph 1009.1mb 61f
6:00 14 15 mph 1009.1mb 61f
5:54 14 15 mph 1009.2mb 61f
5:48 14 15 mph 1009.2mb 62f
5:36 14 15 mph 1009.2mb 62f
5:30 14 16 mph 1009.3mb 62f
5:24 14 16 mph 1009.3mb 62f
5:18 14 16 mph 1009.3mb 62f
5:12 15 18 mph 1009.3mb 62f
5:06 15 16 mph 1009.3mb 62f
5:00 15 17 mph 1009.3mb 62f
4:54 16 18 mph 1009.3mb 62f
4:48 16 18 mph 1009.3mb 62f
4:36 17 18 mph 1009.3mb 62f
4:30 17 18 mph 1009.3mb 63f
4:24 16 18 mph 1009.4mb 63f
4:18 16 17 mph 1009.5mb 63f
4:12 16 18 mph 1009.6mb 63f
4:06 15 16 mph 1009.7mb 64f
4:00 14 16 mph 1009.7mb 64f
3:54 15 16 mph 1009.7mb 65f
3:48 15 17 mph 1009.8mb 64f
3:36 16 18 mph 1009.9mb 64f
3:30 16 18 mph 1010.1mb 64f
3:24 16 20 mph 1010.2mb 63f
3:18 17 18 mph 1010.2mb 63f
3:12 16 17 mph 1010.3mb 64f
3:06 16 18 mph 1010.4mb 63f
3:00 15 17 mph 1010.5mb 64f
2:54 15 17 mph 1010.5mb 64f
2:48 17 18 mph 1010.6mb 63f
2:36 15 17 mph 1010.7mb 64f
2:30 15 17 mph 1010.9mb 63f
2:24 15 16 mph 1011mb 62f
2:18 15 17 mph 1011.1mb 62f
2:12 15 16 mph 1011.1mb 62f
2:06 15 16 mph 1011.2mb 61f
2:00 15 16 mph 1011.3mb 61f
1:54 14 15 mph 1011.3mb 61f
1:48 14 15 mph 1011.4mb 61f
1:36 11 14 mph 1011.5mb 60f
1:30 11 13 mph 1011.6mb 61f
1:24 9 10 mph 1011.7mb 61f
1:18 9 10 mph 1011.8mb 60f
1:12 9 11 mph 1011.8mb 60f
1:06 10 11 mph 1011.9mb 60f
1:00 10 13 mph 1011.9mb 60f
12:54 11 14 mph 1012mb 60f
12:48 14 15 mph 1012mb 60f
12:36 13 14 mph 1012mb 60f
12:30 14 15 mph 1011.9mb 60f
12:24 14 16 mph 1011.9mb 60f
12:18 14 15 mph 1011.9mb 61f
12:12 14 16 mph 1011.9mb 60f
12:06 14 16 mph 1011.9mb 60f
12:00 14 15 mph 1011.9mb 60f
11:54 14 15 mph 1011.9mb 60f
11:48 14 14 mph 1011.9mb 60f
11:36 14 16 mph 1011.9mb 60f
11:30 14 16 mph 1011.9mb 60f
11:24 13 14 mph 1011.9mb 60f
11:18 11 13 mph 1012mb 60f
11:12 10 13 mph 1012mb 60f
11:06 10 13 mph 1012.1mb 60f
11:00 10 13 mph 1012.1mb 60f
10:54 9 11 mph 1012mb 60f
10:48 10 10 mph 1012mb 60f
10:36 6 8 mph 1012.1mb 60f
10:30 6 7 mph 1012.1mb 61f
10:24 5 6 mph 1012.2mb 61f
10:18 3 5 mph 1012.2mb 61f
10:12 2 3 mph 1012.1mb 62f
10:06 2 3 mph 1012.2mb 62f
10:00 2 3 mph 1012.2mb 61f
9:54 2 5 mph 1012.1mb 60f
9:48 2 5 mph 1012.1mb 60f
9:36 3 5 mph 1012.1mb 60f
9:30 5 6 mph 1012.1mb 60f
9:24 3 6 mph 1012.1mb 60f
9:18 3 6 mph 1012.1mb 60f
9:12 2 3 mph 1012.1mb 60f
9:06 2 5 mph 1011.9mb 60f
9:00 2 5 mph 1011.9mb 60f
8:54 3 6 mph 1011.9mb 59f
8:48 3 5 mph 1012mb 60f
8:36 3 5 mph 1012mb 59f
8:30 3 6 mph 1012mb 59f
8:24 3 6 mph 1011.9mb 59f
8:18 3 5 mph 1011.8mb 59f
8:12 5 6 mph 1011.8mb 59f
8:06 5 7 mph 1011.8mb 59f
8:00 6 7 mph 1011.7mb 59f
7:54 6 7 mph 1011.7mb 59f
7:48 5 6 mph 1011.6mb 59f
7:36 6 8 mph 1011.6mb 59f
7:30 6 7 mph 1011.6mb 59f
7:24 6 7 mph 1011.6mb 58f
7:18 5 6 mph 1011.5mb 58f
7:12 5 6 mph 1011.5mb 58f
7:06 5 6 mph 1011.4mb 58f
7:00 3 6 mph 1011.4mb 58f
6:54 5 7 mph 1011.4mb 58f
6:48 5 6 mph 1011.4mb 58f
6:36 5 6 mph 1011.4mb 58f
6:30 3 6 mph 1011.3mb 58f
6:24 3 6 mph 1011.2mb 58f
6:18 5 7 mph 1011.3mb 58f
6:12 3 7 mph 1011.3mb 59f
6:06 3 6 mph 1011.3mb 58f
6:00 3 6 mph 1011.2mb 58f
5:54 5 7 mph 1011.1mb 59f
5:48 3 7 mph 1011.1mb 59f
5:36 5 7 mph 1011mb 59f
5:30 5 6 mph 1010.9mb 59f
5:24 5 7 mph 1010.8mb 59f
5:18 6 7 mph 1010.8mb 59f
5:12 5 7 mph 1010.7mb 59f
5:06 3 6 mph 1010.6mb 59f
5:00 3 6 mph 1010.6mb 59f
4:54 5 8 mph 1010.6mb 59f
4:48 6 8 mph 1010.6mb 59f
4:36 6 8 mph 1010.6mb 59f
4:30 6 8 mph 1010.4mb 59f
4:24 6 7 mph 1010.4mb 59f
4:18 5 8 mph 1010.4mb 59f
4:12 7 9 mph 1010.3mb 59f
4:06 6 10 mph 1010.3mb 59f
4:00 6 9 mph 1010.3mb 59f
3:54 7 9 mph 1010.2mb 59f
3:48 6 8 mph 1010.2mb 59f
3:36 7 9 mph 1010.4mb 59f
3:30 8 9 mph 1010.4mb 59f
3:24 6 9 mph 1010.4mb 59f
3:18 7 9 mph 1010.4mb 59f
3:12 6 8 mph 1010.5mb 59f
3:06 5 7 mph 1010.5mb 59f
3:00 6 8 mph 1010.5mb 59f
2:54 6 9 mph 1010.5mb 59f
2:48 6 8 mph 1010.5mb 59f
2:36 7 9 mph 1010.5mb 59f
2:30 6 9 mph 1010.5mb 59f
2:24 7 9 mph 1010.5mb 59f
2:18 6 8 mph 1010.5mb 59f
2:12 6 9 mph 1010.5mb 59f
2:06 6 9 mph 1010.6mb 59f
2:00 7 8 mph 1010.6mb 59f
1:54 6 8 mph 1010.6mb 59f
1:48 8 9 mph 1010.6mb 59f
1:36 6 8 mph 1010.6mb 59f
1:30 6 8 mph 1010.6mb 59f
1:24 7 9 mph 1010.6mb 59f
1:18 5 7 mph 1010.7mb 59f
1:12 6 10 mph 1010.7mb 59f
1:06 5 7 mph 1010.7mb 59f
1:00 6 7 mph 1010.6mb 59f
12:54 7 8 mph 1010.6mb 59f
12:48 6 8 mph 1010.5mb 60f
12:36 6 8 mph 1010.6mb 59f
12:30 6 9 mph 1010.6mb 59f
12:24 6 10 mph 1010.7mb 59f
12:18 7 8 mph 1010.7mb 59f
12:12 5 7 mph 1010.7mb 59f
12:06 5 9 mph 1010.7mb 59f
12:00 5 8 mph 1010.7mb 59f
lun. 06/19 11:54 6 7 mph 1010.7mb 59f
11:48 6 7 mph 1010.7mb 59f
11:36 6 8 mph 1010.8mb 59f
11:30 6 7 mph 1010.9mb 59f
11:24 5 7 mph 1010.9mb 60f
11:18 6 9 mph 1010.9mb 60f
11:12 6 8 mph 1010.8mb 59f
11:06 5 8 mph 1010.8mb 60f
11:00 6 7 mph 1010.8mb 59f
10:54 6 7 mph 1010.8mb 59f
10:48 5 6 mph 1010.8mb 59f
10:36 5 7 mph 1010.8mb 59f
10:30 3 8 mph 1010.8mb 59f
10:24 6 9 mph 1010.6mb 59f
10:18 5 7 mph 1010.6mb 59f
10:12 6 8 mph 1010.5mb 59f
10:06 5 7 mph 1010.5mb 59f
10:00 6 8 mph 1010.5mb 59f
9:54 3 5 mph 1010.5mb 59f
9:48 2 5 mph 1010.5mb 59f
9:36 3 6 mph 1010.3mb 59f
9:30 2 6 mph 1010.3mb 59f
9:24 5 6 mph 1010.2mb 59f
9:18 3 5 mph 1010.2mb 59f
9:12 3 6 mph 1010.1mb 59f
9:06 2 3 mph 1010mb 59f
9:00 2 3 mph 1010.1mb 59f
8:54 2 3 mph 1010mb 59f
8:48 2 3 mph 1010mb 59f
8:36 5 6 mph 1009.9mb 59f
8:30 6 8 mph 1009.9mb 59f
8:24 7 8 mph 1009.9mb 59f
8:18 8 9 mph 1009.8mb 59f
8:12 6 9 mph 1009.9mb 59f
8:06 8 9 mph 1009.8mb 59f
8:00 7 8 mph 1009.7mb 60f
7:54 8 11 mph 1009.7mb 59f
7:48 9 10 mph 1009.6mb 60f
7:36 7 9 mph 1009.5mb 60f
7:30 8 9 mph 1009.5mb 60f
7:24 9 11 mph 1009.5mb 60f
7:18 9 11 mph 1009.6mb 60f
7:12 10 13 mph 1009.6mb 60f
7:06 11 14 mph 1009.6mb 60f
7:00 11 14 mph 1009.6mb 60f
6:54 11 14 mph 1009.6mb 60f
6:48 11 14 mph 1009.5mb 61f
6:36 10 13 mph 1009.3mb 61f
6:30 10 13 mph 1009.3mb 61f
6:24 11 14 mph 1009.3mb 61f
6:18 10 13 mph 1009.3mb 61f
6:12 11 14 mph 1009.3mb 61f
6:06 11 15 mph 1009.4mb 61f
6:00 11 13 mph 1009.4mb 62f
5:54 10 14 mph 1009.3mb 62f
5:48 9 13 mph 1009.3mb 63f
5:36 11 14 mph 1009.2mb 63f
5:30 10 14 mph 1009.3mb 63f
5:24 10 13 mph 1009.3mb 63f
5:18 10 13 mph 1009.4mb 63f
5:12 10 14 mph 1009.5mb 64f
5:06 11 14 mph 1009.5mb 64f
5:00 10 14 mph 1009.6mb 64f
4:54 10 14 mph 1009.7mb 64f
4:48 10 14 mph 1009.7mb 64f
4:36 11 14 mph 1009.7mb 64f
4:30 11 16 mph 1009.8mb 65f
4:24 13 15 mph 1009.8mb 64f
4:18 13 15 mph 1009.9mb 64f
4:12 13 15 mph 1009.9mb 64f
4:06 11 14 mph 1009.9mb 66f
4:00 11 14 mph 1010mb 65f
3:54 11 14 mph 1010mb 66f
3:48 11 15 mph 1010.1mb 66f
3:36 13 17 mph 1010.2mb 67f